This is the latest recevied weather packets stored in our database for station/object KC1DMA. If no packets are shown the sender has not sent any weather packets the latest 10 day(s).
| Time | Temp. | Humidity | Pressure | Rain* | Wind** | Luminosity | Snow |
|---|---|---|---|---|---|---|---|
| 1778260045 | 14.44° C | 42% | 1012 hPa | - | - | 208 W/m² | - |
| 1778259744 | 14.44° C | 42% | 1012.2 hPa | - | - | 208 W/m² | - |
| 1778259440 | 15° C | 41% | 1011.8 hPa | - | - | 276 W/m² | - |
| 1778259137 | 15° C | 41% | 1011.9 hPa | - | - | 345 W/m² | - |
| 1778258834 | 15° C | 43% | 1011.8 hPa | - | - | 1067 W/m² | - |
| 1778258530 | 15° C | 43% | 1011.8 hPa | - | - | 1067 W/m² | - |
| 1778258228 | 14.44° C | 41% | 1011.9 hPa | - | - | 1104 W/m² | - |
| 1778257926 | 14.44° C | 41% | 1011.8 hPa | - | - | 1104 W/m² | - |
| 1778257621 | 14.44° C | 41% | 1012 hPa | - | - | 1104 W/m² | - |
| 1778257318 | 14.44° C | 43% | 1012 hPa | - | - | 1027 W/m² | - |
| 1778257015 | 14.44° C | 43% | 1012.3 hPa | - | - | 1027 W/m² | - |
| 1778256713 | 15° C | 42% | 1012.2 hPa | - | - | 336 W/m² | - |
| 1778256411 | 14.44° C | 42% | 1012.2 hPa | - | - | 1011 W/m² | - |
| 1778256108 | 13.89° C | 43% | 1012.5 hPa | - | - | 271 W/m² | - |
| 1778255805 | 13.89° C | 43% | 1012.6 hPa | - | - | 271 W/m² | - |
| 1778255502 | 13.89° C | 43% | 1012.7 hPa | - | - | 271 W/m² | - |
| 1778255199 | 14.44° C | 43% | 1012.6 hPa | - | - | 696 W/m² | - |
| 1778254896 | 15° C | 42% | 1012.7 hPa | - | - | 896 W/m² | - |
| 1778254592 | 13.33° C | 51% | 1012.6 hPa | - | - | 753 W/m² | - |
| 1778254289 | 13.33° C | 51% | 1012.5 hPa | - | - | 753 W/m² | - |
| 1778253986 | 13.33° C | 51% | 1012.5 hPa | - | - | 753 W/m² | - |
| 1778253681 | 13.33° C | 51% | 1012.7 hPa | - | - | 753 W/m² | - |
| 1778253379 | 13.33° C | 51% | 1012.6 hPa | - | - | 753 W/m² | - |
| 1778253075 | 13.33° C | 51% | 1012.7 hPa | - | - | 753 W/m² | - |
| 1778252772 | 13.33° C | 51% | 1012.6 hPa | - | - | 753 W/m² | - |
* Rain since midnight (hover to see other rain measurements)
** Current wind speed in m/s (hover to see current wind gust speed)